sensor_id;sensor_type;location;lat;lon;timestamp;P1;durP1;ratioP1;P2;durP2;ratioP2
43150;SDS011;28755;51.478;5.702;2023-02-08T00:00:53;26.00;;;11.98;;
43150;SDS011;28755;51.478;5.702;2023-02-08T00:03:19;23.02;;;12.10;;
43150;SDS011;28755;51.478;5.702;2023-02-08T00:05:45;19.70;;;11.93;;
43150;SDS011;28755;51.478;5.702;2023-02-08T00:08:10;21.25;;;11.82;;
43150;SDS011;28755;51.478;5.702;2023-02-08T00:10:36;20.52;;;11.88;;
43150;SDS011;28755;51.478;5.702;2023-02-08T00:13:02;19.25;;;11.38;;
43150;SDS011;28755;51.478;5.702;2023-02-08T00:15:27;22.63;;;12.43;;
43150;SDS011;28755;51.478;5.702;2023-02-08T00:17:53;21.58;;;12.00;;
43150;SDS011;28755;51.478;5.702;2023-02-08T00:20:18;19.02;;;12.10;;
43150;SDS011;28755;51.478;5.702;2023-02-08T00:22:44;22.05;;;12.20;;
43150;SDS011;28755;51.478;5.702;2023-02-08T00:25:10;20.38;;;11.65;;
43150;SDS011;28755;51.478;5.702;2023-02-08T00:27:36;19.98;;;11.52;;
43150;SDS011;28755;51.478;5.702;2023-02-08T00:30:02;26.45;;;12.50;;
43150;SDS011;28755;51.478;5.702;2023-02-08T00:32:28;20.67;;;11.02;;
43150;SDS011;28755;51.478;5.702;2023-02-08T00:34:54;23.33;;;11.70;;
43150;SDS011;28755;51.478;5.702;2023-02-08T00:37:19;20.30;;;11.80;;
43150;SDS011;28755;51.478;5.702;2023-02-08T00:39:45;17.63;;;12.13;;
43150;SDS011;28755;51.478;5.702;2023-02-08T00:42:11;21.60;;;12.77;;
43150;SDS011;28755;51.478;5.702;2023-02-08T00:44:36;25.10;;;11.73;;
43150;SDS011;28755;51.478;5.702;2023-02-08T00:47:02;22.95;;;12.13;;
43150;SDS011;28755;51.478;5.702;2023-02-08T00:49:27;20.35;;;11.75;;
43150;SDS011;28755;51.478;5.702;2023-02-08T00:51:53;20.83;;;12.23;;
43150;SDS011;28755;51.478;5.702;2023-02-08T00:54:19;19.10;;;11.90;;
43150;SDS011;28755;51.478;5.702;2023-02-08T00:56:45;19.52;;;12.05;;
43150;SDS011;28755;51.478;5.702;2023-02-08T00:59:11;24.02;;;12.55;;
43150;SDS011;28755;51.478;5.702;2023-02-08T01:01:37;21.13;;;12.32;;
43150;SDS011;28755;51.478;5.702;2023-02-08T01:04:03;19.38;;;12.00;;
43150;SDS011;28755;51.478;5.702;2023-02-08T01:06:29;19.85;;;12.88;;
43150;SDS011;28755;51.478;5.702;2023-02-08T01:08:55;20.98;;;12.70;;
43150;SDS011;28755;51.478;5.702;2023-02-08T01:11:21;20.25;;;12.80;;
43150;SDS011;28755;51.478;5.702;2023-02-08T01:13:49;24.10;;;12.95;;
43150;SDS011;28755;51.478;5.702;2023-02-08T01:16:19;26.27;;;13.20;;
43150;SDS011;28755;51.478;5.702;2023-02-08T01:18:47;21.27;;;12.52;;
43150;SDS011;28755;51.478;5.702;2023-02-08T01:21:16;22.38;;;13.57;;
43150;SDS011;28755;51.478;5.702;2023-02-08T01:23:43;21.52;;;13.05;;
43150;SDS011;28755;51.478;5.702;2023-02-08T01:26:13;18.17;;;12.05;;
43150;SDS011;28755;51.478;5.702;2023-02-08T01:28:40;19.92;;;11.35;;
43150;SDS011;28755;51.478;5.702;2023-02-08T01:31:10;25.08;;;12.50;;
43150;SDS011;28755;51.478;5.702;2023-02-08T01:33:41;19.70;;;12.55;;
43150;SDS011;28755;51.478;5.702;2023-02-08T01:36:07;21.52;;;12.70;;
43150;SDS011;28755;51.478;5.702;2023-02-08T01:38:33;21.25;;;12.80;;
43150;SDS011;28755;51.478;5.702;2023-02-08T01:41:00;21.77;;;12.63;;
43150;SDS011;28755;51.478;5.702;2023-02-08T01:43:27;22.48;;;12.60;;
43150;SDS011;28755;51.478;5.702;2023-02-08T01:45:55;23.13;;;12.70;;
43150;SDS011;28755;51.478;5.702;2023-02-08T01:51:00;22.45;;;13.20;;
43150;SDS011;28755;51.478;5.702;2023-02-08T01:53:33;19.75;;;13.02;;
43150;SDS011;28755;51.478;5.702;2023-02-08T01:56:01;19.85;;;12.60;;
43150;SDS011;28755;51.478;5.702;2023-02-08T01:58:29;24.83;;;13.00;;
43150;SDS011;28755;51.478;5.702;2023-02-08T02:00:58;25.38;;;12.43;;
43150;SDS011;28755;51.478;5.702;2023-02-08T02:03:25;24.25;;;12.35;;
43150;SDS011;28755;51.478;5.702;2023-02-08T02:05:53;24.70;;;13.50;;
43150;SDS011;28755;51.478;5.702;2023-02-08T02:08:25;18.83;;;11.65;;
43150;SDS011;28755;51.478;5.702;2023-02-08T02:10:50;20.23;;;11.85;;
43150;SDS011;28755;51.478;5.702;2023-02-08T02:13:17;20.58;;;11.88;;
43150;SDS011;28755;51.478;5.702;2023-02-08T02:15:45;20.02;;;11.63;;
43150;SDS011;28755;51.478;5.702;2023-02-08T02:18:11;20.75;;;11.68;;
43150;SDS011;28755;51.478;5.702;2023-02-08T02:32:19;23.17;;;12.13;;
43150;SDS011;28755;51.478;5.702;2023-02-08T02:41:05;18.48;;;11.50;;
43150;SDS011;28755;51.478;5.702;2023-02-08T02:43:33;24.90;;;12.48;;
43150;SDS011;28755;51.478;5.702;2023-02-08T02:49:02;20.50;;;12.60;;
43150;SDS011;28755;51.478;5.702;2023-02-08T02:51:56;21.73;;;12.73;;
43150;SDS011;28755;51.478;5.702;2023-02-08T02:57:08;23.02;;;12.55;;
43150;SDS011;28755;51.478;5.702;2023-02-08T02:59:36;17.23;;;11.68;;
43150;SDS011;28755;51.478;5.702;2023-02-08T03:02:03;21.55;;;11.68;;
43150;SDS011;28755;51.478;5.702;2023-02-08T03:04:51;18.73;;;12.10;;
43150;SDS011;28755;51.478;5.702;2023-02-08T03:12:33;20.77;;;12.43;;
43150;SDS011;28755;51.478;5.702;2023-02-08T03:15:27;18.50;;;12.32;;
43150;SDS011;28755;51.478;5.702;2023-02-08T03:18:19;21.55;;;12.90;;
43150;SDS011;28755;51.478;5.702;2023-02-08T03:21:09;20.45;;;12.32;;
43150;SDS011;28755;51.478;5.702;2023-02-08T03:26:36;23.77;;;12.05;;
43150;SDS011;28755;51.478;5.702;2023-02-08T03:29:36;17.55;;;11.43;;
43150;SDS011;28755;51.478;5.702;2023-02-08T03:32:40;19.25;;;11.77;;
43150;SDS011;28755;51.478;5.702;2023-02-08T03:35:14;22.38;;;12.55;;
43150;SDS011;28755;51.478;5.702;2023-02-08T03:37:53;20.95;;;12.15;;
43150;SDS011;28755;51.478;5.702;2023-02-08T03:40:31;21.83;;;12.00;;
43150;SDS011;28755;51.478;5.702;2023-02-08T03:43:03;22.58;;;12.55;;
43150;SDS011;28755;51.478;5.702;2023-02-08T03:45:36;25.15;;;13.45;;
43150;SDS011;28755;51.478;5.702;2023-02-08T03:48:06;22.30;;;12.75;;
43150;SDS011;28755;51.478;5.702;2023-02-08T03:50:34;20.55;;;12.82;;
43150;SDS011;28755;51.478;5.702;2023-02-08T03:53:02;25.02;;;12.80;;
43150;SDS011;28755;51.478;5.702;2023-02-08T03:55:30;19.15;;;12.02;;
43150;SDS011;28755;51.478;5.702;2023-02-08T03:58:16;21.13;;;12.13;;
43150;SDS011;28755;51.478;5.702;2023-02-08T04:00:43;21.30;;;12.30;;
43150;SDS011;28755;51.478;5.702;2023-02-08T04:03:16;21.40;;;12.20;;
43150;SDS011;28755;51.478;5.702;2023-02-08T04:05:45;19.42;;;11.98;;
43150;SDS011;28755;51.478;5.702;2023-02-08T04:08:11;20.40;;;12.35;;
43150;SDS011;28755;51.478;5.702;2023-02-08T04:10:37;22.00;;;12.25;;
43150;SDS011;28755;51.478;5.702;2023-02-08T04:13:03;21.08;;;12.50;;
43150;SDS011;28755;51.478;5.702;2023-02-08T04:15:28;21.35;;;13.05;;
43150;SDS011;28755;51.478;5.702;2023-02-08T04:17:54;22.63;;;12.52;;
43150;SDS011;28755;51.478;5.702;2023-02-08T04:20:20;24.85;;;13.10;;
43150;SDS011;28755;51.478;5.702;2023-02-08T04:22:46;20.00;;;12.57;;
43150;SDS011;28755;51.478;5.702;2023-02-08T04:25:11;18.33;;;11.73;;
43150;SDS011;28755;51.478;5.702;2023-02-08T04:27:37;17.13;;;11.57;;
43150;SDS011;28755;51.478;5.702;2023-02-08T04:30:03;19.23;;;12.38;;
43150;SDS011;28755;51.478;5.702;2023-02-08T04:32:29;22.20;;;12.88;;
43150;SDS011;28755;51.478;5.702;2023-02-08T04:34:55;23.23;;;12.18;;
43150;SDS011;28755;51.478;5.702;2023-02-08T04:37:20;23.83;;;12.25;;
43150;SDS011;28755;51.478;5.702;2023-02-08T04:39:46;20.52;;;12.68;;
43150;SDS011;28755;51.478;5.702;2023-02-08T04:42:12;21.60;;;12.43;;
43150;SDS011;28755;51.478;5.702;2023-02-08T04:44:37;20.48;;;12.48;;
43150;SDS011;28755;51.478;5.702;2023-02-08T04:47:03;20.63;;;12.75;;
43150;SDS011;28755;51.478;5.702;2023-02-08T04:49:28;21.40;;;12.85;;
43150;SDS011;28755;51.478;5.702;2023-02-08T04:51:54;23.05;;;12.88;;
43150;SDS011;28755;51.478;5.702;2023-02-08T04:54:20;24.35;;;13.25;;
43150;SDS011;28755;51.478;5.702;2023-02-08T04:56:45;21.38;;;12.90;;
43150;SDS011;28755;51.478;5.702;2023-02-08T04:59:11;18.77;;;12.35;;
43150;SDS011;28755;51.478;5.702;2023-02-08T05:01:37;20.90;;;12.88;;
43150;SDS011;28755;51.478;5.702;2023-02-08T05:04:02;22.02;;;12.32;;
43150;SDS011;28755;51.478;5.702;2023-02-08T05:06:28;23.10;;;12.77;;
43150;SDS011;28755;51.478;5.702;2023-02-08T05:08:53;23.33;;;12.88;;
43150;SDS011;28755;51.478;5.702;2023-02-08T05:11:19;23.45;;;13.05;;
43150;SDS011;28755;51.478;5.702;2023-02-08T05:13:49;24.08;;;13.70;;
43150;SDS011;28755;51.478;5.702;2023-02-08T05:16:15;21.73;;;12.73;;
43150;SDS011;28755;51.478;5.702;2023-02-08T05:18:41;22.65;;;13.48;;
43150;SDS011;28755;51.478;5.702;2023-02-08T05:21:07;21.42;;;13.23;;
43150;SDS011;28755;51.478;5.702;2023-02-08T05:23:33;22.30;;;13.15;;
43150;SDS011;28755;51.478;5.702;2023-02-08T05:25:58;21.08;;;12.98;;
43150;SDS011;28755;51.478;5.702;2023-02-08T05:28:24;20.55;;;13.00;;
43150;SDS011;28755;51.478;5.702;2023-02-08T05:30:50;20.33;;;12.45;;
43150;SDS011;28755;51.478;5.702;2023-02-08T05:33:16;22.75;;;13.48;;
43150;SDS011;28755;51.478;5.702;2023-02-08T05:35:43;28.30;;;14.52;;
43150;SDS011;28755;51.478;5.702;2023-02-08T05:38:09;23.52;;;14.27;;
43150;SDS011;28755;51.478;5.702;2023-02-08T05:40:35;25.88;;;13.73;;
43150;SDS011;28755;51.478;5.702;2023-02-08T05:43:00;20.92;;;13.18;;
43150;SDS011;28755;51.478;5.702;2023-02-08T05:45:26;23.10;;;13.82;;
43150;SDS011;28755;51.478;5.702;2023-02-08T05:47:52;21.58;;;13.52;;
43150;SDS011;28755;51.478;5.702;2023-02-08T05:50:17;23.70;;;14.60;;
43150;SDS011;28755;51.478;5.702;2023-02-08T05:52:43;32.08;;;14.43;;
43150;SDS011;28755;51.478;5.702;2023-02-08T05:55:09;24.88;;;14.38;;
43150;SDS011;28755;51.478;5.702;2023-02-08T05:57:34;23.80;;;13.73;;
43150;SDS011;28755;51.478;5.702;2023-02-08T06:00:02;23.83;;;13.05;;
43150;SDS011;28755;51.478;5.702;2023-02-08T06:02:30;22.30;;;13.55;;
43150;SDS011;28755;51.478;5.702;2023-02-08T06:04:56;21.23;;;13.32;;
43150;SDS011;28755;51.478;5.702;2023-02-08T06:07:22;23.65;;;12.70;;
43150;SDS011;28755;51.478;5.702;2023-02-08T06:09:47;26.35;;;13.82;;
43150;SDS011;28755;51.478;5.702;2023-02-08T06:12:13;25.05;;;13.00;;
43150;SDS011;28755;51.478;5.702;2023-02-08T06:14:38;22.88;;;13.23;;
43150;SDS011;28755;51.478;5.702;2023-02-08T06:17:04;23.67;;;14.02;;
43150;SDS011;28755;51.478;5.702;2023-02-08T06:19:29;22.17;;;13.07;;
43150;SDS011;28755;51.478;5.702;2023-02-08T06:21:55;19.75;;;13.05;;
43150;SDS011;28755;51.478;5.702;2023-02-08T06:24:20;24.23;;;13.65;;
43150;SDS011;28755;51.478;5.702;2023-02-08T06:26:46;23.13;;;13.68;;
43150;SDS011;28755;51.478;5.702;2023-02-08T06:29:11;21.10;;;12.70;;
43150;SDS011;28755;51.478;5.702;2023-02-08T06:31:37;23.10;;;13.18;;
43150;SDS011;28755;51.478;5.702;2023-02-08T06:34:03;22.95;;;12.98;;
43150;SDS011;28755;51.478;5.702;2023-02-08T06:36:28;25.38;;;13.75;;
43150;SDS011;28755;51.478;5.702;2023-02-08T06:38:54;19.95;;;13.55;;
43150;SDS011;28755;51.478;5.702;2023-02-08T06:41:19;24.63;;;13.45;;
43150;SDS011;28755;51.478;5.702;2023-02-08T06:43:45;25.35;;;14.15;;
43150;SDS011;28755;51.478;5.702;2023-02-08T06:46:10;23.42;;;14.25;;
43150;SDS011;28755;51.478;5.702;2023-02-08T06:48:36;22.10;;;13.50;;
43150;SDS011;28755;51.478;5.702;2023-02-08T06:51:02;23.63;;;14.43;;
43150;SDS011;28755;51.478;5.702;2023-02-08T06:53:28;23.38;;;14.05;;
43150;SDS011;28755;51.478;5.702;2023-02-08T06:55:54;24.17;;;14.45;;
43150;SDS011;28755;51.478;5.702;2023-02-08T06:58:19;20.85;;;13.38;;
43150;SDS011;28755;51.478;5.702;2023-02-08T07:00:45;23.77;;;13.93;;
43150;SDS011;28755;51.478;5.702;2023-02-08T07:03:11;24.13;;;13.45;;
43150;SDS011;28755;51.478;5.702;2023-02-08T07:05:37;25.33;;;14.48;;
43150;SDS011;28755;51.478;5.702;2023-02-08T07:08:04;22.42;;;13.77;;
43150;SDS011;28755;51.478;5.702;2023-02-08T07:10:31;23.27;;;13.27;;
43150;SDS011;28755;51.478;5.702;2023-02-08T07:12:57;23.70;;;13.80;;
43150;SDS011;28755;51.478;5.702;2023-02-08T07:15:23;23.13;;;13.13;;
43150;SDS011;28755;51.478;5.702;2023-02-08T07:17:48;28.77;;;13.38;;
43150;SDS011;28755;51.478;5.702;2023-02-08T07:20:14;22.98;;;14.18;;
43150;SDS011;28755;51.478;5.702;2023-02-08T07:22:40;22.67;;;14.30;;
43150;SDS011;28755;51.478;5.702;2023-02-08T07:25:06;24.80;;;12.60;;
43150;SDS011;28755;51.478;5.702;2023-02-08T07:27:32;21.60;;;12.80;;
43150;SDS011;28755;51.478;5.702;2023-02-08T07:29:58;26.08;;;13.82;;
43150;SDS011;28755;51.478;5.702;2023-02-08T07:32:24;27.48;;;14.82;;
43150;SDS011;28755;51.478;5.702;2023-02-08T07:34:50;21.52;;;13.35;;
43150;SDS011;28755;51.478;5.702;2023-02-08T07:37:15;25.90;;;13.48;;
43150;SDS011;28755;51.478;5.702;2023-02-08T07:39:41;18.85;;;11.85;;
43150;SDS011;28755;51.478;5.702;2023-02-08T07:42:07;21.38;;;12.15;;
43150;SDS011;28755;51.478;5.702;2023-02-08T07:44:35;20.55;;;12.05;;
43150;SDS011;28755;51.478;5.702;2023-02-08T07:47:02;23.30;;;11.35;;
43150;SDS011;28755;51.478;5.702;2023-02-08T07:49:28;18.05;;;10.63;;
43150;SDS011;28755;51.478;5.702;2023-02-08T07:51:54;17.98;;;10.93;;
43150;SDS011;28755;51.478;5.702;2023-02-08T07:54:19;21.73;;;11.95;;
43150;SDS011;28755;51.478;5.702;2023-02-08T07:56:45;18.25;;;11.65;;
43150;SDS011;28755;51.478;5.702;2023-02-08T07:59:11;22.13;;;11.88;;
43150;SDS011;28755;51.478;5.702;2023-02-08T08:01:36;24.50;;;11.05;;
43150;SDS011;28755;51.478;5.702;2023-02-08T08:04:02;25.65;;;11.65;;
43150;SDS011;28755;51.478;5.702;2023-02-08T08:06:27;16.30;;;10.68;;
43150;SDS011;28755;51.478;5.702;2023-02-08T08:08:53;18.13;;;11.38;;
43150;SDS011;28755;51.478;5.702;2023-02-08T08:11:19;16.73;;;10.57;;
43150;SDS011;28755;51.478;5.702;2023-02-08T08:13:46;21.27;;;11.30;;
43150;SDS011;28755;51.478;5.702;2023-02-08T08:16:12;18.42;;;11.50;;
43150;SDS011;28755;51.478;5.702;2023-02-08T08:18:38;18.02;;;11.40;;
43150;SDS011;28755;51.478;5.702;2023-02-08T08:21:03;26.35;;;12.20;;
43150;SDS011;28755;51.478;5.702;2023-02-08T08:23:29;18.02;;;11.80;;
43150;SDS011;28755;51.478;5.702;2023-02-08T08:25:57;23.23;;;12.00;;
43150;SDS011;28755;51.478;5.702;2023-02-08T08:28:23;21.95;;;11.88;;
43150;SDS011;28755;51.478;5.702;2023-02-08T08:30:48;24.27;;;12.10;;
43150;SDS011;28755;51.478;5.702;2023-02-08T08:33:14;22.90;;;11.70;;
43150;SDS011;28755;51.478;5.702;2023-02-08T08:35:40;24.50;;;11.93;;
43150;SDS011;28755;51.478;5.702;2023-02-08T08:38:07;20.88;;;11.57;;
43150;SDS011;28755;51.478;5.702;2023-02-08T08:40:33;20.23;;;12.52;;
43150;SDS011;28755;51.478;5.702;2023-02-08T08:42:59;17.88;;;11.23;;
43150;SDS011;28755;51.478;5.702;2023-02-08T08:45:24;19.20;;;11.02;;
43150;SDS011;28755;51.478;5.702;2023-02-08T08:47:50;21.48;;;11.90;;
43150;SDS011;28755;51.478;5.702;2023-02-08T08:50:15;22.05;;;12.15;;
43150;SDS011;28755;51.478;5.702;2023-02-08T08:52:41;26.63;;;11.55;;
43150;SDS011;28755;51.478;5.702;2023-02-08T08:55:06;20.33;;;11.25;;
43150;SDS011;28755;51.478;5.702;2023-02-08T08:57:33;18.73;;;12.13;;
43150;SDS011;28755;51.478;5.702;2023-02-08T08:59:58;19.38;;;11.63;;
43150;SDS011;28755;51.478;5.702;2023-02-08T09:02:24;24.95;;;11.25;;
43150;SDS011;28755;51.478;5.702;2023-02-08T09:04:49;21.35;;;12.45;;
43150;SDS011;28755;51.478;5.702;2023-02-08T09:07:15;19.52;;;12.13;;
43150;SDS011;28755;51.478;5.702;2023-02-08T09:09:41;16.17;;;11.15;;
43150;SDS011;28755;51.478;5.702;2023-02-08T09:12:11;21.42;;;12.10;;
43150;SDS011;28755;51.478;5.702;2023-02-08T09:14:38;20.40;;;12.68;;
43150;SDS011;28755;51.478;5.702;2023-02-08T09:17:03;19.17;;;12.57;;
43150;SDS011;28755;51.478;5.702;2023-02-08T09:19:29;26.30;;;11.80;;
43150;SDS011;28755;51.478;5.702;2023-02-08T09:21:54;24.73;;;12.38;;
43150;SDS011;28755;51.478;5.702;2023-02-08T09:24:21;18.60;;;12.20;;
43150;SDS011;28755;51.478;5.702;2023-02-08T09:26:48;18.88;;;10.73;;
43150;SDS011;28755;51.478;5.702;2023-02-08T09:29:13;20.40;;;12.65;;
43150;SDS011;28755;51.478;5.702;2023-02-08T09:31:39;16.33;;;11.38;;
43150;SDS011;28755;51.478;5.702;2023-02-08T09:34:05;20.95;;;11.82;;
43150;SDS011;28755;51.478;5.702;2023-02-08T09:36:33;19.65;;;11.65;;
43150;SDS011;28755;51.478;5.702;2023-02-08T09:39:02;15.02;;;10.27;;
43150;SDS011;28755;51.478;5.702;2023-02-08T09:46:59;16.48;;;10.68;;
43150;SDS011;28755;51.478;5.702;2023-02-08T09:52:34;15.35;;;10.30;;
43150;SDS011;28755;51.478;5.702;2023-02-08T09:55:15;14.00;;;10.20;;
43150;SDS011;28755;51.478;5.702;2023-02-08T09:57:41;13.73;;;9.82;;
43150;SDS011;28755;51.478;5.702;2023-02-08T10:00:11;17.13;;;11.13;;
43150;SDS011;28755;51.478;5.702;2023-02-08T10:02:42;21.00;;;11.30;;
43150;SDS011;28755;51.478;5.702;2023-02-08T10:05:10;16.95;;;10.20;;
43150;SDS011;28755;51.478;5.702;2023-02-08T10:07:43;16.17;;;10.88;;
43150;SDS011;28755;51.478;5.702;2023-02-08T10:10:23;18.58;;;10.48;;
43150;SDS011;28755;51.478;5.702;2023-02-08T10:13:14;13.45;;;10.13;;
43150;SDS011;28755;51.478;5.702;2023-02-08T10:16:29;15.55;;;10.02;;
43150;SDS011;28755;51.478;5.702;2023-02-08T10:22:30;14.13;;;9.60;;
43150;SDS011;28755;51.478;5.702;2023-02-08T10:30:50;16.17;;;10.63;;
43150;SDS011;28755;51.478;5.702;2023-02-08T10:33:42;14.65;;;10.68;;
43150;SDS011;28755;51.478;5.702;2023-02-08T10:36:26;13.93;;;10.32;;
43150;SDS011;28755;51.478;5.702;2023-02-08T10:38:55;22.05;;;10.60;;
43150;SDS011;28755;51.478;5.702;2023-02-08T10:41:24;13.43;;;10.32;;
43150;SDS011;28755;51.478;5.702;2023-02-08T10:44:04;20.08;;;10.55;;
43150;SDS011;28755;51.478;5.702;2023-02-08T10:47:04;15.27;;;10.55;;
43150;SDS011;28755;51.478;5.702;2023-02-08T10:50:02;12.85;;;10.02;;
43150;SDS011;28755;51.478;5.702;2023-02-08T10:52:47;17.65;;;9.88;;
43150;SDS011;28755;51.478;5.702;2023-02-08T10:55:14;14.98;;;9.77;;
43150;SDS011;28755;51.478;5.702;2023-02-08T10:57:41;16.02;;;10.43;;
43150;SDS011;28755;51.478;5.702;2023-02-08T11:00:12;17.02;;;9.90;;
43150;SDS011;28755;51.478;5.702;2023-02-08T11:02:41;17.13;;;10.07;;
43150;SDS011;28755;51.478;5.702;2023-02-08T11:05:08;17.05;;;10.02;;
43150;SDS011;28755;51.478;5.702;2023-02-08T11:07:38;16.13;;;10.25;;
43150;SDS011;28755;51.478;5.702;2023-02-08T11:12:52;15.77;;;9.43;;
43150;SDS011;28755;51.478;5.702;2023-02-08T11:15:47;14.77;;;10.00;;
43150;SDS011;28755;51.478;5.702;2023-02-08T11:18:24;14.82;;;9.05;;
43150;SDS011;28755;51.478;5.702;2023-02-08T11:20:56;13.88;;;9.02;;
43150;SDS011;28755;51.478;5.702;2023-02-08T11:23:31;15.05;;;9.52;;
43150;SDS011;28755;51.478;5.702;2023-02-08T11:28:43;14.13;;;8.15;;
43150;SDS011;28755;51.478;5.702;2023-02-08T11:31:16;9.68;;;7.60;;
43150;SDS011;28755;51.478;5.702;2023-02-08T11:34:00;12.10;;;8.30;;
43150;SDS011;28755;51.478;5.702;2023-02-08T11:36:31;8.88;;;5.90;;
43150;SDS011;28755;51.478;5.702;2023-02-08T11:39:41;8.40;;;5.57;;
43150;SDS011;28755;51.478;5.702;2023-02-08T11:41:47;9.13;;;6.50;;
43150;SDS011;28755;51.478;5.702;2023-02-08T11:44:22;11.10;;;6.70;;
43150;SDS011;28755;51.478;5.702;2023-02-08T11:46:52;9.40;;;6.57;;
43150;SDS011;28755;51.478;5.702;2023-02-08T11:49:23;9.60;;;6.25;;
43150;SDS011;28755;51.478;5.702;2023-02-08T11:51:52;10.90;;;6.50;;
43150;SDS011;28755;51.478;5.702;2023-02-08T11:54:31;6.10;;;4.63;;
43150;SDS011;28755;51.478;5.702;2023-02-08T11:57:10;14.00;;;4.97;;
43150;SDS011;28755;51.478;5.702;2023-02-08T11:59:44;6.47;;;4.72;;
43150;SDS011;28755;51.478;5.702;2023-02-08T12:05:03;4.72;;;3.55;;
43150;SDS011;28755;51.478;5.702;2023-02-08T12:07:52;6.80;;;3.85;;
43150;SDS011;28755;51.478;5.702;2023-02-08T12:14:01;6.68;;;3.63;;
43150;SDS011;28755;51.478;5.702;2023-02-08T12:17:01;5.22;;;3.67;;
43150;SDS011;28755;51.478;5.702;2023-02-08T12:22:31;5.95;;;4.93;;
43150;SDS011;28755;51.478;5.702;2023-02-08T12:30:33;7.50;;;5.00;;
43150;SDS011;28755;51.478;5.702;2023-02-08T12:35:52;15.23;;;5.80;;
43150;SDS011;28755;51.478;5.702;2023-02-08T12:42:01;6.25;;;4.85;;
43150;SDS011;28755;51.478;5.702;2023-02-08T12:44:40;6.50;;;4.30;;
43150;SDS011;28755;51.478;5.702;2023-02-08T12:50:24;8.10;;;4.85;;
43150;SDS011;28755;51.478;5.702;2023-02-08T12:53:14;7.07;;;4.35;;
43150;SDS011;28755;51.478;5.702;2023-02-08T12:55:54;7.28;;;4.80;;
43150;SDS011;28755;51.478;5.702;2023-02-08T13:03:40;9.00;;;5.30;;
43150;SDS011;28755;51.478;5.702;2023-02-08T13:06:07;7.07;;;4.90;;
43150;SDS011;28755;51.478;5.702;2023-02-08T13:08:51;8.40;;;4.90;;
43150;SDS011;28755;51.478;5.702;2023-02-08T13:11:26;9.15;;;4.68;;
43150;SDS011;28755;51.478;5.702;2023-02-08T13:14:22;7.93;;;4.68;;
43150;SDS011;28755;51.478;5.702;2023-02-08T13:16:54;8.25;;;5.53;;
43150;SDS011;28755;51.478;5.702;2023-02-08T13:19:45;9.27;;;5.30;;
43150;SDS011;28755;51.478;5.702;2023-02-08T13:22:15;12.70;;;5.03;;
43150;SDS011;28755;51.478;5.702;2023-02-08T13:24:42;9.15;;;4.90;;
43150;SDS011;28755;51.478;5.702;2023-02-08T13:27:14;7.10;;;4.30;;
43150;SDS011;28755;51.478;5.702;2023-02-08T13:29:42;8.95;;;4.55;;
43150;SDS011;28755;51.478;5.702;2023-02-08T13:32:16;8.20;;;4.75;;
43150;SDS011;28755;51.478;5.702;2023-02-08T13:34:54;6.88;;;4.25;;
43150;SDS011;28755;51.478;5.702;2023-02-08T13:37:31;5.95;;;4.53;;
43150;SDS011;28755;51.478;5.702;2023-02-08T13:40:03;12.43;;;5.30;;
43150;SDS011;28755;51.478;5.702;2023-02-08T13:42:48;10.13;;;4.38;;
43150;SDS011;28755;51.478;5.702;2023-02-08T13:45:52;7.28;;;4.40;;
43150;SDS011;28755;51.478;5.702;2023-02-08T13:48:15;11.90;;;4.50;;
43150;SDS011;28755;51.478;5.702;2023-02-08T13:53:14;10.63;;;4.53;;
43150;SDS011;28755;51.478;5.702;2023-02-08T13:55:57;5.80;;;4.22;;
43150;SDS011;28755;51.478;5.702;2023-02-08T13:58:24;12.80;;;4.43;;
43150;SDS011;28755;51.478;5.702;2023-02-08T14:03:22;7.72;;;4.18;;
43150;SDS011;28755;51.478;5.702;2023-02-08T14:05:55;4.80;;;3.60;;
43150;SDS011;28755;51.478;5.702;2023-02-08T14:08:29;8.15;;;4.18;;
43150;SDS011;28755;51.478;5.702;2023-02-08T14:11:45;6.90;;;4.22;;
43150;SDS011;28755;51.478;5.702;2023-02-08T14:14:23;8.40;;;4.15;;
43150;SDS011;28755;51.478;5.702;2023-02-08T14:20:04;7.53;;;4.28;;
43150;SDS011;28755;51.478;5.702;2023-02-08T14:22:38;6.60;;;3.80;;
43150;SDS011;28755;51.478;5.702;2023-02-08T14:25:21;6.60;;;4.28;;
43150;SDS011;28755;51.478;5.702;2023-02-08T14:32:44;7.32;;;4.18;;
43150;SDS011;28755;51.478;5.702;2023-02-08T14:35:22;8.65;;;3.53;;
43150;SDS011;28755;51.478;5.702;2023-02-08T14:38:29;6.47;;;3.70;;
43150;SDS011;28755;51.478;5.702;2023-02-08T14:41:06;5.28;;;3.90;;
43150;SDS011;28755;51.478;5.702;2023-02-08T14:43:34;9.63;;;4.00;;
43150;SDS011;28755;51.478;5.702;2023-02-08T14:49:00;10.07;;;4.10;;
43150;SDS011;28755;51.478;5.702;2023-02-08T14:51:33;7.78;;;3.53;;
43150;SDS011;28755;51.478;5.702;2023-02-08T14:54:03;7.38;;;3.78;;
43150;SDS011;28755;51.478;5.702;2023-02-08T14:56:53;4.78;;;3.22;;
43150;SDS011;28755;51.478;5.702;2023-02-08T14:59:23;8.27;;;3.55;;
43150;SDS011;28755;51.478;5.702;2023-02-08T15:01:56;6.90;;;3.53;;
43150;SDS011;28755;51.478;5.702;2023-02-08T15:04:27;9.23;;;3.75;;
43150;SDS011;28755;51.478;5.702;2023-02-08T15:09:32;6.75;;;3.63;;
43150;SDS011;28755;51.478;5.702;2023-02-08T15:12:07;5.72;;;3.63;;
43150;SDS011;28755;51.478;5.702;2023-02-08T15:14:35;8.98;;;3.70;;
43150;SDS011;28755;51.478;5.702;2023-02-08T15:17:03;7.43;;;3.67;;
43150;SDS011;28755;51.478;5.702;2023-02-08T15:19:31;6.00;;;3.22;;
43150;SDS011;28755;51.478;5.702;2023-02-08T15:22:17;6.63;;;3.55;;
43150;SDS011;28755;51.478;5.702;2023-02-08T15:24:54;8.07;;;3.50;;
43150;SDS011;28755;51.478;5.702;2023-02-08T15:27:29;10.50;;;3.67;;
43150;SDS011;28755;51.478;5.702;2023-02-08T15:29:56;10.95;;;3.63;;
43150;SDS011;28755;51.478;5.702;2023-02-08T15:32:23;7.93;;;3.67;;
43150;SDS011;28755;51.478;5.702;2023-02-08T15:34:57;11.30;;;4.32;;
43150;SDS011;28755;51.478;5.702;2023-02-08T15:37:24;5.63;;;3.78;;
43150;SDS011;28755;51.478;5.702;2023-02-08T15:39:55;6.00;;;3.95;;
43150;SDS011;28755;51.478;5.702;2023-02-08T15:42:23;9.90;;;5.20;;
43150;SDS011;28755;51.478;5.702;2023-02-08T15:44:52;8.13;;;4.28;;
43150;SDS011;28755;51.478;5.702;2023-02-08T15:50:02;4.85;;;3.50;;
43150;SDS011;28755;51.478;5.702;2023-02-08T15:52:31;8.13;;;4.78;;
43150;SDS011;28755;51.478;5.702;2023-02-08T15:55:05;8.90;;;5.65;;
43150;SDS011;28755;51.478;5.702;2023-02-08T15:57:37;10.90;;;4.88;;
43150;SDS011;28755;51.478;5.702;2023-02-08T16:00:17;9.80;;;4.90;;
43150;SDS011;28755;51.478;5.702;2023-02-08T16:03:05;11.07;;;4.45;;
43150;SDS011;28755;51.478;5.702;2023-02-08T16:05:39;10.55;;;5.20;;
43150;SDS011;28755;51.478;5.702;2023-02-08T16:08:05;8.98;;;4.45;;
43150;SDS011;28755;51.478;5.702;2023-02-08T16:10:39;8.60;;;4.35;;
43150;SDS011;28755;51.478;5.702;2023-02-08T16:13:17;8.55;;;4.85;;
43150;SDS011;28755;51.478;5.702;2023-02-08T16:15:45;13.43;;;4.88;;
43150;SDS011;28755;51.478;5.702;2023-02-08T16:20:59;8.98;;;5.60;;
43150;SDS011;28755;51.478;5.702;2023-02-08T16:23:30;8.95;;;4.72;;
43150;SDS011;28755;51.478;5.702;2023-02-08T16:25:57;14.95;;;6.20;;
43150;SDS011;28755;51.478;5.702;2023-02-08T16:28:36;12.05;;;5.03;;
43150;SDS011;28755;51.478;5.702;2023-02-08T16:31:03;9.45;;;5.30;;
43150;SDS011;28755;51.478;5.702;2023-02-08T16:33:30;12.63;;;4.78;;
43150;SDS011;28755;51.478;5.702;2023-02-08T16:35:56;10.75;;;5.22;;
43150;SDS011;28755;51.478;5.702;2023-02-08T16:38:26;15.30;;;5.80;;